Time;durP1;ratioP1;P1;durP2;ratioP2;P2;SDS_P1;SDS_P2;PMS_P1;PMS_P2;Temp;Humidity;BMP_temperature;BMP_pressure;BME280_temperature;BME280_humidity;BME280_pressure;Samples;Min_cycle;Max_cycle;Signal;HPM_P1;HPM_P2
2022/04/16 00:00:11;;;;;;;19.02;13.00;;;8.90;99.90;;;;;;5054628;28;20037;-74
2022/04/16 00:02:37;;;;;;;19.48;12.45;;;8.90;99.90;;;;;;5054419;28;20090;-75
2022/04/16 00:05:03;;;;;;;14.77;11.95;;;8.90;99.90;;;;;;5054606;28;20056;-76
2022/04/16 00:07:29;;;;;;;19.40;13.82;;;8.90;99.90;;;;;;5054100;28;20041;-75
2022/04/16 00:09:54;;;;;;;17.95;12.65;;;8.90;99.90;;;;;;5054449;28;20043;-74
2022/04/16 00:12:20;;;;;;;15.75;12.85;;;8.90;99.90;;;;;;5053759;28;20037;-76
2022/04/16 00:14:46;;;;;;;20.25;12.70;;;8.90;99.90;;;;;;5054192;28;20126;-76
2022/04/16 00:17:11;;;;;;;17.40;12.27;;;8.90;99.90;;;;;;5054348;28;20048;-76
2022/04/16 00:19:37;;;;;;;15.02;12.13;;;8.90;99.90;;;;;;5035752;28;20041;-75
2022/04/16 00:22:07;;;;;;;17.60;12.60;;;8.90;99.90;;;;;;5054472;28;20131;-75
2022/04/16 00:24:33;;;;;;;17.27;12.27;;;8.90;99.90;;;;;;5053914;28;20041;-74
2022/04/16 00:26:59;;;;;;;18.73;13.52;;;8.90;99.90;;;;;;5053965;28;20037;-75
2022/04/16 00:29:24;;;;;;;19.08;13.27;;;8.90;99.90;;;;;;5054108;28;20523;-74
2022/04/16 00:31:50;;;;;;;18.83;12.93;;;8.90;99.90;;;;;;5054417;28;20043;-74
2022/04/16 00:34:16;;;;;;;16.55;13.02;;;8.90;99.90;;;;;;5035872;28;20048;-75
2022/04/16 00:36:42;;;;;;;16.83;12.07;;;8.90;99.90;;;;;;5036775;28;20450;-77
2022/04/16 00:39:08;;;;;;;19.08;13.07;;;8.90;99.90;;;;;;5036565;28;20111;-75
2022/04/16 00:41:34;;;;;;;18.58;13.30;;;8.90;99.90;;;;;;5054016;28;20087;-74
2022/04/16 00:43:59;;;;;;;15.95;12.48;;;8.90;99.90;;;;;;5056082;28;20091;-74
2022/04/16 00:46:25;;;;;;;19.50;13.30;;;8.90;99.90;;;;;;5040288;28;20125;-75
2022/04/16 00:48:51;;;;;;;15.50;12.45;;;8.90;99.90;;;;;;5057005;28;20044;-75
2022/04/16 00:51:16;;;;;;;16.63;12.85;;;9.00;99.90;;;;;;5039662;28;20064;-74
2022/04/16 00:53:43;;;;;;;17.75;13.23;;;8.90;99.90;;;;;;5040098;28;20037;-75
2022/04/16 00:56:12;;;;;;;18.90;12.85;;;8.90;99.90;;;;;;5057251;28;20363;-76
2022/04/16 00:58:40;;;;;;;18.85;12.77;;;9.00;99.90;;;;;;5057121;28;20137;-75
2022/04/16 01:01:06;;;;;;;20.75;14.10;;;8.90;99.90;;;;;;5019693;28;20049;-76
2022/04/16 01:03:32;;;;;;;17.73;13.43;;;9.00;99.90;;;;;;5037654;28;20045;-75
2022/04/16 01:05:58;;;;;;;21.08;14.05;;;8.90;99.90;;;;;;5037267;28;20055;-76
2022/04/16 01:08:24;;;;;;;16.98;13.65;;;9.00;99.90;;;;;;5037283;28;20136;-76
2022/04/16 01:10:49;;;;;;;17.90;13.32;;;9.00;99.90;;;;;;5020220;28;20136;-75
2022/04/16 01:13:18;;;;;;;19.58;13.30;;;9.00;99.90;;;;;;5037131;28;20342;-75
2022/04/16 01:15:44;;;;;;;18.27;13.48;;;9.00;99.90;;;;;;5017409;28;20042;-75
2022/04/16 01:18:12;;;;;;;17.45;13.73;;;9.00;99.90;;;;;;5025985;28;20041;-75
2022/04/16 01:20:38;;;;;;;19.63;13.27;;;9.00;99.90;;;;;;5037222;28;20033;-75
2022/04/16 01:23:04;;;;;;;18.30;12.93;;;9.00;99.90;;;;;;5037066;28;20045;-75
2022/04/16 01:25:32;;;;;;;20.55;14.60;;;9.00;99.90;;;;;;5037207;28;20047;-75
2022/04/16 01:27:58;;;;;;;17.20;13.68;;;8.90;99.90;;;;;;5037170;28;20056;-76
2022/04/16 01:30:24;;;;;;;19.02;12.73;;;9.00;99.90;;;;;;5036822;28;20041;-75
2022/04/16 01:32:49;;;;;;;19.30;13.73;;;9.00;99.90;;;;;;5036836;28;20387;-76
2022/04/16 01:35:16;;;;;;;18.63;14.07;;;9.00;99.90;;;;;;5036590;28;20406;-75
2022/04/16 01:37:42;;;;;;;18.83;13.82;;;8.90;99.90;;;;;;5019141;28;20110;-75
2022/04/16 01:40:10;;;;;;;19.55;14.35;;;9.00;99.90;;;;;;5036777;28;20124;-74
2022/04/16 01:42:37;;;;;;;19.92;13.73;;;8.90;99.90;;;;;;5033951;28;20110;-75
2022/04/16 01:45:02;;;;;;;18.95;14.55;;;8.90;99.90;;;;;;5019252;28;20142;-76
2022/04/16 01:47:28;;;;;;;20.83;13.95;;;8.90;99.90;;;;;;5037213;28;20447;-75
2022/04/16 01:49:55;;;;;;;19.52;15.02;;;8.90;99.90;;;;;;5037436;28;20045;-75
2022/04/16 01:52:24;;;;;;;21.90;14.88;;;8.90;99.90;;;;;;5055979;28;20052;-75
2022/04/16 01:54:50;;;;;;;20.15;14.75;;;9.00;99.90;;;;;;5038059;28;20044;-75
2022/04/16 01:57:19;;;;;;;22.73;15.70;;;8.90;99.90;;;;;;5056471;28;20029;-75
2022/04/16 01:59:48;;;;;;;17.48;14.80;;;9.00;99.90;;;;;;5056341;28;20303;-74
2022/04/16 02:02:15;;;;;;;19.80;14.82;;;9.00;99.90;;;;;;5056246;28;20064;-75
2022/04/16 02:04:41;;;;;;;20.52;14.88;;;8.90;99.90;;;;;;5056209;28;20124;-75
2022/04/16 02:07:06;;;;;;;21.65;16.48;;;9.00;99.90;;;;;;5055985;28;20076;-76
2022/04/16 02:09:32;;;;;;;19.15;15.57;;;8.90;99.90;;;;;;5056380;28;20099;-76
2022/04/16 02:11:58;;;;;;;24.77;17.33;;;8.90;99.90;;;;;;5055893;28;20037;-75
2022/04/16 02:14:24;;;;;;;24.30;16.92;;;8.90;99.90;;;;;;5055874;28;20316;-76
2022/04/16 02:16:49;;;;;;;22.98;16.40;;;8.90;99.90;;;;;;5056343;28;20041;-73
2022/04/16 02:19:15;;;;;;;20.75;16.83;;;8.90;99.90;;;;;;5056150;28;20048;-76
2022/04/16 02:21:42;;;;;;;20.00;16.65;;;8.90;99.90;;;;;;5038187;28;20063;-76
2022/04/16 02:24:07;;;;;;;26.27;18.77;;;8.90;99.90;;;;;;5055999;28;20037;-76
2022/04/16 02:26:33;;;;;;;22.35;17.23;;;8.90;99.90;;;;;;5056026;28;20044;-74
2022/04/16 02:28:59;;;;;;;19.70;16.67;;;8.90;99.90;;;;;;5055692;28;20056;-76
2022/04/16 02:31:28;;;;;;;25.30;17.23;;;8.90;99.90;;;;;;5038227;28;20367;-75
2022/04/16 02:33:57;;;;;;;21.17;17.30;;;8.90;99.90;;;;;;5037608;28;20049;-75
2022/04/16 02:36:26;;;;;;;22.20;16.73;;;8.90;99.90;;;;;;5055962;28;20045;-75
2022/04/16 02:38:57;;;;;;;20.75;17.38;;;8.90;99.90;;;;;;5055779;28;20052;-75
2022/04/16 02:41:23;;;;;;;24.35;17.90;;;8.90;99.90;;;;;;5055631;28;20045;-76
2022/04/16 02:43:49;;;;;;;24.13;17.63;;;8.90;99.90;;;;;;5056023;28;20056;-74
2022/04/16 02:49:00;;;;;;;24.52;17.77;;;8.90;99.90;;;;;;5055083;28;20052;-74
2022/04/16 02:51:26;;;;;;;23.85;17.45;;;8.90;99.90;;;;;;5037692;28;20055;-74
2022/04/16 02:53:51;;;;;;;25.75;17.90;;;8.90;99.90;;;;;;5055488;28;20196;-75
2022/04/16 02:56:17;;;;;;;25.48;19.55;;;8.90;99.90;;;;;;5055414;28;20072;-75
2022/04/16 02:58:43;;;;;;;26.73;19.52;;;8.90;99.90;;;;;;5054379;28;20102;-76
2022/04/16 03:01:09;;;;;;;31.48;19.67;;;8.90;99.90;;;;;;5055355;28;20124;-75
2022/04/16 03:03:34;;;;;;;24.88;20.20;;;8.90;99.90;;;;;;5055467;28;20037;-75
2022/04/16 03:06:00;;;;;;;23.40;18.83;;;8.90;99.90;;;;;;5037701;28;20120;-76
2022/04/16 03:08:26;;;;;;;31.20;20.05;;;8.90;99.90;;;;;;5054455;28;20060;-76
2022/04/16 03:10:52;;;;;;;26.05;19.08;;;8.90;99.90;;;;;;5055408;28;20128;-76
2022/04/16 03:13:18;;;;;;;23.85;19.35;;;8.90;99.90;;;;;;5055151;28;20033;-77
2022/04/16 03:18:29;;;;;;;26.42;19.13;;;8.90;99.90;;;;;;5035248;28;20046;-73
2022/04/16 03:20:54;;;;;;;26.90;19.70;;;8.90;99.90;;;;;;5035135;28;20325;-76
2022/04/16 03:23:21;;;;;;;28.70;20.00;;;8.80;99.90;;;;;;5035784;28;20033;-74
2022/04/16 03:25:50;;;;;;;25.50;19.50;;;8.90;99.90;;;;;;5035165;28;20432;-77
2022/04/16 03:28:16;;;;;;;30.10;20.55;;;8.80;99.90;;;;;;5052578;28;20036;-75
2022/04/16 03:30:42;;;;;;;27.27;20.48;;;8.80;99.90;;;;;;5054900;28;20123;-75
2022/04/16 03:33:08;;;;;;;27.95;20.27;;;8.80;99.90;;;;;;5054752;28;20040;-74
2022/04/16 03:35:35;;;;;;;27.50;21.98;;;8.80;99.90;;;;;;5054928;28;20056;-75
2022/04/16 03:38:01;;;;;;;26.45;19.98;;;8.80;99.90;;;;;;5054787;28;20147;-74
2022/04/16 03:40:27;;;;;;;28.33;20.67;;;8.80;99.90;;;;;;5054567;28;20049;-75
2022/04/16 03:43:00;;;;;;;26.20;21.23;;;8.80;99.90;;;;;;5053563;28;20041;-76
2022/04/16 03:45:31;;;;;;;31.50;21.38;;;8.70;99.90;;;;;;5054051;28;20126;-76
2022/04/16 03:47:58;;;;;;;31.33;22.35;;;8.70;99.90;;;;;;5054811;28;20055;-76
2022/04/16 03:50:25;;;;;;;28.38;21.67;;;8.70;99.90;;;;;;5054571;28;20045;-75
2022/04/16 03:52:52;;;;;;;26.42;20.48;;;8.70;99.90;;;;;;5054868;28;20049;-74
2022/04/16 04:00:49;;;;;;;28.70;21.33;;;8.70;99.90;;;;;;5054536;28;20045;-75
2022/04/16 04:03:19;;;;;;;31.83;23.27;;;8.60;99.90;;;;;;5054743;28;20040;-75
2022/04/16 04:05:45;;;;;;;28.83;22.38;;;8.60;99.90;;;;;;5054282;28;20033;-76
2022/04/16 04:08:12;;;;;;;31.95;23.65;;;8.60;99.90;;;;;;5053798;28;20087;-75
2022/04/16 04:10:38;;;;;;;26.30;20.70;;;8.60;99.90;;;;;;5020971;28;20041;-75
2022/04/16 04:13:04;;;;;;;27.90;21.10;;;8.60;99.90;;;;;;5054641;28;20362;-74
2022/04/16 04:15:30;;;;;;;31.35;22.88;;;8.50;99.90;;;;;;5019711;28;20127;-75
2022/04/16 04:17:58;;;;;;;30.15;22.70;;;8.50;99.90;;;;;;5054451;28;20043;-75
2022/04/16 04:20:24;;;;;;;32.55;23.13;;;8.40;99.90;;;;;;5058593;28;20374;-74
2022/04/16 04:22:49;;;;;;;32.25;23.05;;;8.30;99.90;;;;;;5006988;28;20052;-76
2022/04/16 04:25:15;;;;;;;31.08;22.48;;;8.30;99.90;;;;;;5057313;28;20530;-76
2022/04/16 04:27:41;;;;;;;29.20;22.25;;;8.20;99.90;;;;;;5058345;28;20136;-78
2022/04/16 04:30:07;;;;;;;30.52;23.27;;;8.10;99.90;;;;;;5058057;28;20088;-75
2022/04/16 04:32:33;;;;;;;33.70;23.13;;;8.00;99.90;;;;;;5057873;28;20063;-75
2022/04/16 04:34:58;;;;;;;31.30;24.85;;;8.00;99.90;;;;;;5057935;28;20037;-72
2022/04/16 04:37:24;;;;;;;32.80;22.48;;;7.90;99.90;;;;;;5057580;28;20041;-77
2022/04/16 04:39:50;;;;;;;31.95;23.15;;;7.90;99.90;;;;;;5057134;28;20048;-76
2022/04/16 04:42:27;;;;;;;30.38;22.92;;;7.80;99.90;;;;;;5057896;28;20037;-76
2022/04/16 04:44:53;;;;;;;29.00;23.35;;;7.80;99.90;;;;;;5057827;28;20047;-76
2022/04/16 04:47:18;;;;;;;30.60;24.55;;;7.80;99.90;;;;;;5057511;28;20115;-76
2022/04/16 04:49:44;;;;;;;36.45;25.10;;;7.70;99.90;;;;;;5057822;28;20405;-77
2022/04/16 04:52:10;;;;;;;32.33;24.60;;;7.70;99.90;;;;;;5058015;28;20048;-73
2022/04/16 04:54:35;;;;;;;31.27;23.20;;;7.70;99.90;;;;;;5056944;28;20040;-73
2022/04/16 04:57:03;;;;;;;32.95;24.73;;;7.70;99.90;;;;;;5057640;28;20037;-74
2022/04/16 04:59:29;;;;;;;31.48;24.55;;;7.70;99.90;;;;;;5057581;28;20087;-74
2022/04/16 05:01:54;;;;;;;31.63;23.50;;;7.70;99.90;;;;;;5039448;28;20065;-74
2022/04/16 05:04:20;;;;;;;32.50;24.75;;;7.70;99.90;;;;;;5039857;28;20045;-74
2022/04/16 05:06:45;;;;;;;35.72;25.42;;;7.70;99.90;;;;;;5057412;28;20048;-75
2022/04/16 05:09:11;;;;;;;30.63;23.63;;;7.70;99.90;;;;;;5057459;28;20335;-75
2022/04/16 05:11:37;;;;;;;33.90;25.63;;;7.70;99.90;;;;;;5057173;28;20443;-74
2022/04/16 05:14:02;;;;;;;34.20;25.17;;;7.80;99.90;;;;;;5057397;28;20044;-75
2022/04/16 05:16:28;;;;;;;33.72;25.85;;;7.80;99.90;;;;;;5056709;28;20044;-76
2022/04/16 05:18:54;;;;;;;36.13;25.45;;;7.90;99.90;;;;;;5039470;28;20041;-74
2022/04/16 05:21:19;;;;;;;34.80;26.15;;;7.90;99.90;;;;;;5057185;28;20355;-74
2022/04/16 05:23:45;;;;;;;37.25;27.20;;;8.00;99.90;;;;;;5039746;28;20481;-76
2022/04/16 05:26:12;;;;;;;34.78;25.20;;;8.00;99.90;;;;;;5057134;28;20449;-75
2022/04/16 05:28:38;;;;;;;33.30;25.23;;;8.00;99.90;;;;;;5057057;28;20041;-75
2022/04/16 05:31:05;;;;;;;38.40;26.25;;;8.10;99.90;;;;;;5055176;28;20049;-77
2022/04/16 05:36:15;;;;;;;32.05;25.40;;;8.10;99.90;;;;;;5039588;28;20056;-77
2022/04/16 05:38:41;;;;;;;34.28;26.20;;;8.20;99.90;;;;;;5039387;28;20041;-77
2022/04/16 05:41:06;;;;;;;33.85;24.92;;;8.20;99.90;;;;;;5056912;28;20037;-75
2022/04/16 05:43:32;;;;;;;34.35;24.88;;;8.20;99.90;;;;;;5056263;28;20115;-76
2022/04/16 05:45:58;;;;;;;35.15;26.70;;;8.30;99.90;;;;;;5056684;28;20087;-74
2022/04/16 05:48:23;;;;;;;34.78;26.33;;;8.30;99.90;;;;;;5056334;28;20041;-75
2022/04/16 05:50:49;;;;;;;37.33;27.65;;;8.40;99.90;;;;;;5056438;28;20056;-72
2022/04/16 05:53:15;;;;;;;36.92;27.38;;;8.40;99.90;;;;;;5039115;28;20086;-72
2022/04/16 05:55:45;;;;;;;39.13;29.67;;;8.40;99.90;;;;;;5056167;28;20040;-73
2022/04/16 05:58:11;;;;;;;38.22;29.58;;;8.50;99.90;;;;;;5055919;28;20116;-72
2022/04/16 06:00:37;;;;;;;36.88;27.95;;;8.50;99.90;;;;;;5056145;28;20461;-74
2022/04/16 06:03:04;;;;;;;39.13;28.92;;;8.50;99.90;;;;;;5038364;28;20128;-74
2022/04/16 06:05:31;;;;;;;40.30;28.98;;;8.60;99.90;;;;;;5056664;28;20052;-77
2022/04/16 06:07:57;;;;;;;41.38;31.08;;;8.60;99.90;;;;;;5056324;28;20097;-74
2022/04/16 06:10:23;;;;;;;43.10;30.55;;;8.70;99.90;;;;;;5056090;28;20053;-76
2022/04/16 06:12:49;;;;;;;43.33;32.50;;;8.70;99.90;;;;;;5056205;28;20370;-74
2022/04/16 06:15:14;;;;;;;44.78;32.53;;;8.80;99.90;;;;;;5055515;28;20492;-77
2022/04/16 06:17:40;;;;;;;43.78;32.67;;;8.70;99.90;;;;;;5056077;28;20120;-75
2022/04/16 06:20:08;;;;;;;48.15;32.83;;;8.80;99.90;;;;;;5055873;28;20194;-72
2022/04/16 06:22:34;;;;;;;42.95;34.40;;;8.80;99.90;;;;;;5038431;28;20131;-75
2022/04/16 06:25:00;;;;;;;46.78;34.83;;;8.80;99.90;;;;;;5055647;28;20356;-74
2022/04/16 06:27:25;;;;;;;44.38;33.83;;;8.90;99.90;;;;;;5055758;28;20056;-72
2022/04/16 06:29:51;;;;;;;48.05;35.45;;;8.90;99.90;;;;;;5053276;28;20040;-72
2022/04/16 06:32:16;;;;;;;49.70;35.30;;;8.90;99.90;;;;;;5035821;28;20048;-75
2022/04/16 06:34:42;;;;;;;42.88;31.70;;;8.90;99.90;;;;;;5055851;28;20051;-77
2022/04/16 06:37:07;;;;;;;48.22;32.83;;;8.90;99.90;;;;;;5038072;28;20067;-78
2022/04/16 06:39:33;;;;;;;41.22;32.00;;;8.90;99.90;;;;;;5037833;28;20071;-74
2022/04/16 06:41:58;;;;;;;40.33;31.27;;;9.00;99.90;;;;;;5037388;28;20045;-71
2022/04/16 06:44:24;;;;;;;41.75;30.23;;;9.00;99.90;;;;;;5055478;28;20048;-73
2022/04/16 06:46:50;;;;;;;42.50;31.42;;;9.00;99.90;;;;;;5055754;28;20119;-73
2022/04/16 06:49:16;;;;;;;39.08;29.23;;;9.10;99.90;;;;;;5054473;28;20040;-70
2022/04/16 06:51:42;;;;;;;42.70;31.08;;;9.20;99.90;;;;;;5055324;28;20474;-71
2022/04/16 06:54:08;;;;;;;40.38;29.42;;;9.20;99.90;;;;;;5055585;28;20041;-79
2022/04/16 06:56:34;;;;;;;41.50;30.35;;;9.30;99.90;;;;;;5034463;28;20053;-76
2022/04/16 06:59:00;;;;;;;39.67;29.80;;;9.30;99.90;;;;;;5049219;28;20037;-79
2022/04/16 07:01:26;;;;;;;37.22;27.90;;;9.30;99.90;;;;;;5053354;28;20117;-76
2022/04/16 07:03:52;;;;;;;35.22;27.73;;;9.20;99.90;;;;;;5034053;28;20084;-75
2022/04/16 07:06:18;;;;;;;38.08;27.85;;;9.30;99.90;;;;;;5037734;28;20118;-76
2022/04/16 07:08:43;;;;;;;36.70;25.83;;;9.20;99.90;;;;;;5055111;28;20127;-74
2022/04/16 07:11:09;;;;;;;31.33;24.55;;;9.30;99.90;;;;;;5037291;28;20045;-75
2022/04/16 07:13:34;;;;;;;32.40;24.65;;;9.30;99.90;;;;;;5054983;28;20045;-75
2022/04/16 07:16:00;;;;;;;33.60;25.23;;;9.40;99.90;;;;;;5054907;28;20041;-75
2022/04/16 07:18:26;;;;;;;32.13;23.70;;;9.40;99.90;;;;;;5055134;28;20167;-74
2022/04/16 07:20:51;;;;;;;31.38;23.30;;;9.50;99.90;;;;;;5054877;28;20072;-75
2022/04/16 07:23:17;;;;;;;31.35;21.83;;;9.50;99.90;;;;;;5054838;28;20036;-77
2022/04/16 07:25:42;;;;;;;24.90;17.90;;;9.70;99.90;;;;;;5054660;28;20110;-78
2022/04/16 07:28:10;;;;;;;26.58;19.75;;;9.70;99.90;;;;;;5054435;28;20033;-78
2022/04/16 07:30:36;;;;;;;28.00;18.88;;;9.60;99.90;;;;;;5039041;28;20084;-75
2022/04/16 07:33:02;;;;;;;22.50;17.33;;;9.50;99.90;;;;;;5054486;28;20411;-74
2022/04/16 07:35:28;;;;;;;23.25;17.65;;;9.50;99.90;;;;;;5054917;28;20051;-75
2022/04/16 07:37:57;;;;;;;23.10;16.58;;;9.50;99.90;;;;;;5054852;28;20493;-74
2022/04/16 07:40:24;;;;;;;22.33;17.25;;;9.50;99.90;;;;;;5054494;28;20509;-76
2022/04/16 07:42:50;;;;;;;22.00;17.15;;;9.50;99.90;;;;;;5054652;28;20045;-75
2022/04/16 07:45:15;;;;;;;20.77;16.08;;;9.50;99.90;;;;;;5054575;28;20090;-74
2022/04/16 07:47:41;;;;;;;21.35;15.60;;;9.50;99.90;;;;;;5054620;28;20052;-73
2022/04/16 07:50:07;;;;;;;21.85;16.95;;;9.50;99.90;;;;;;5052120;28;20041;-76
2022/04/16 07:52:33;;;;;;;26.52;17.50;;;9.60;99.90;;;;;;5034600;28;20481;-74
2022/04/16 07:54:58;;;;;;;23.83;17.13;;;9.60;99.90;;;;;;5044908;28;20076;-76
2022/04/16 07:57:24;;;;;;;22.42;16.98;;;9.70;99.90;;;;;;5040118;28;20045;-75
2022/04/16 07:59:49;;;;;;;21.35;15.82;;;9.70;99.90;;;;;;5041265;28;20051;-77
2022/04/16 08:02:15;;;;;;;21.33;15.55;;;9.70;99.90;;;;;;5032163;28;20045;-76
2022/04/16 08:04:41;;;;;;;19.45;14.50;;;9.90;99.90;;;;;;5021586;28;20049;-78
2022/04/16 08:07:07;;;;;;;22.25;16.17;;;9.90;99.90;;;;;;5036748;28;20041;-78
2022/04/16 08:09:32;;;;;;;20.92;16.00;;;10.00;99.90;;;;;;5058007;28;20442;-76
2022/04/16 08:11:58;;;;;;;18.40;14.02;;;10.00;99.90;;;;;;5058292;28;20359;-79
2022/04/16 08:14:25;;;;;;;20.15;15.00;;;10.00;99.90;;;;;;5040850;28;20048;-77
2022/04/16 08:16:50;;;;;;;18.20;14.50;;;10.10;99.90;;;;;;5041663;28;20417;-77
2022/04/16 08:19:16;;;;;;;20.23;15.05;;;10.10;99.90;;;;;;5040883;28;20052;-77
2022/04/16 08:21:42;;;;;;;19.00;14.82;;;10.10;99.90;;;;;;5053289;28;20065;-79
2022/04/16 08:26:36;;;;;;;20.30;13.90;;;10.20;99.90;;;;;;5040676;28;20087;-79
2022/04/16 08:29:02;;;;;;;20.40;14.63;;;10.30;99.90;;;;;;5058599;28;20408;-75
2022/04/16 08:31:28;;;;;;;17.92;13.43;;;10.30;99.90;;;;;;5054994;28;20040;-76
2022/04/16 08:33:54;;;;;;;21.02;14.48;;;10.30;99.90;;;;;;5026444;28;20063;-77
2022/04/16 08:36:20;;;;;;;18.50;13.73;;;10.30;99.90;;;;;;5040781;28;20037;-78
2022/04/16 08:38:46;;;;;;;18.45;14.27;;;10.30;99.90;;;;;;5040746;28;20037;-78
2022/04/16 08:41:12;;;;;;;19.83;13.65;;;10.40;99.90;;;;;;5058655;28;20083;-78
2022/04/16 08:43:39;;;;;;;17.10;13.65;;;10.40;99.90;;;;;;5024973;28;20052;-79
2022/04/16 08:46:05;;;;;;;17.80;13.05;;;10.40;99.90;;;;;;5025547;28;20474;-78
2022/04/16 08:48:34;;;;;;;18.33;13.18;;;10.40;99.90;;;;;;5045292;28;20101;-77
2022/04/16 08:51:00;;;;;;;15.80;12.50;;;10.40;99.90;;;;;;5027341;28;20069;-77
2022/04/16 08:53:26;;;;;;;21.17;13.38;;;10.50;99.90;;;;;;5060753;28;20044;-80
2022/04/16 08:55:51;;;;;;;18.33;13.35;;;10.50;99.90;;;;;;5027794;28;20049;-78
2022/04/16 08:58:17;;;;;;;16.50;12.23;;;10.50;99.90;;;;;;5041794;28;20358;-79
2022/04/16 09:00:43;;;;;;;16.73;11.70;;;10.50;99.90;;;;;;5042408;28;20099;-78
2022/04/16 09:03:09;;;;;;;17.42;11.82;;;10.60;99.90;;;;;;4999213;28;20337;-77
2022/04/16 09:05:35;;;;;;;16.02;10.85;;;10.60;99.90;;;;;;5048557;28;20121;-78
2022/04/16 09:08:03;;;;;;;14.82;10.82;;;10.60;99.90;;;;;;5045593;28;20036;-77
2022/04/16 09:10:31;;;;;;;16.70;11.18;;;10.70;99.90;;;;;;5011364;28;20439;-77
2022/04/16 09:12:58;;;;;;;15.18;11.15;;;10.70;99.90;;;;;;5044764;28;20144;-78
2022/04/16 09:15:25;;;;;;;18.17;12.05;;;10.70;99.90;;;;;;5040675;28;20183;-79
2022/04/16 09:18:05;;;;;;;12.43;10.38;;;10.80;99.90;;;;;;5021535;28;20339;-79
2022/04/16 09:20:36;;;;;;;15.32;11.00;;;10.80;99.90;;;;;;5019551;28;20037;-76
2022/04/16 09:23:15;;;;;;;16.15;11.27;;;10.90;99.90;;;;;;5003833;28;20049;-76
2022/04/16 09:25:42;;;;;;;18.15;11.55;;;10.90;99.90;;;;;;5019884;28;20041;-76
2022/04/16 09:28:08;;;;;;;13.88;10.55;;;10.90;99.90;;;;;;5020233;28;20045;-77
2022/04/16 09:30:37;;;;;;;17.15;11.10;;;11.00;99.90;;;;;;5036609;28;20046;-76
2022/04/16 09:33:23;;;;;;;14.77;10.30;;;11.00;99.90;;;;;;5036305;28;20045;-78
2022/04/16 09:35:54;;;;;;;13.82;10.02;;;11.10;99.90;;;;;;5036973;28;20109;-77
2022/04/16 09:38:20;;;;;;;13.18;9.20;;;11.10;99.90;;;;;;5003214;28;20041;-77
2022/04/16 09:40:47;;;;;;;12.88;8.77;;;11.20;99.90;;;;;;5037026;28;20112;-79
2022/04/16 09:43:12;;;;;;;13.15;10.10;;;11.20;99.90;;;;;;5036975;28;20029;-78
2022/04/16 09:45:40;;;;;;;16.83;10.88;;;11.20;99.90;;;;;;5018981;28;20095;-77
2022/04/16 09:48:12;;;;;;;18.40;10.05;;;11.30;99.90;;;;;;5019464;28;20037;-78
2022/04/16 09:50:40;;;;;;;17.30;10.75;;;11.40;99.90;;;;;;5023986;28;20402;-79
2022/04/16 09:53:06;;;;;;;15.57;10.13;;;11.40;99.90;;;;;;5039101;28;20128;-78
2022/04/16 09:55:33;;;;;;;14.02;9.23;;;11.40;99.90;;;;;;5036019;28;20079;-77
2022/04/16 09:58:03;;;;;;;12.93;9.38;;;11.60;99.90;;;;;;5022204;28;20033;-79
2022/04/16 10:00:33;;;;;;;11.70;8.43;;;11.50;99.90;;;;;;5039033;28;20044;-77
2022/04/16 10:03:00;;;;;;;10.15;8.15;;;11.60;99.90;;;;;;5022555;28;20037;-76
2022/04/16 10:05:26;;;;;;;10.25;7.32;;;11.60;99.90;;;;;;5022158;28;20060;-78
2022/04/16 10:07:55;;;;;;;10.20;6.47;;;11.70;99.90;;;;;;5039051;28;20098;-78
2022/04/16 10:10:41;;;;;;;8.98;6.85;;;11.70;99.90;;;;;;5038543;28;20052;-79
2022/04/16 10:13:10;;;;;;;13.52;7.38;;;11.80;99.90;;;;;;5033765;28;20076;-79
2022/04/16 10:16:01;;;;;;;8.88;6.38;;;11.80;99.90;;;;;;5047342;28;20339;-79
2022/04/16 10:18:35;;;;;;;8.90;4.82;;;11.80;99.90;;;;;;5055940;28;20342;-79
2022/04/16 10:21:02;;;;;;;5.60;4.65;;;11.90;99.90;;;;;;5022025;28;20033;-74
2022/04/16 10:23:37;;;;;;;6.30;4.47;;;11.90;99.90;;;;;;5055308;28;20072;-76
2022/04/16 10:26:14;;;;;;;9.07;5.13;;;11.90;99.90;;;;;;5038245;28;20048;-75
2022/04/16 10:28:54;;;;;;;5.47;4.30;;;12.00;99.90;;;;;;5022040;28;20040;-76
2022/04/16 10:31:22;;;;;;;5.60;4.13;;;12.00;99.90;;;;;;5055881;28;20037;-77
2022/04/16 10:34:07;;;;;;;5.55;4.28;;;12.00;99.90;;;;;;5055603;28;20136;-76
2022/04/16 10:36:44;;;;;;;7.25;4.30;;;12.10;99.90;;;;;;5055779;28;20064;-76
2022/04/16 10:39:14;;;;;;;8.45;4.35;;;12.20;99.90;;;;;;5037149;28;20052;-73
2022/04/16 10:41:39;;;;;;;7.05;4.85;;;12.20;99.90;;;;;;5055613;28;20120;-73
2022/04/16 10:44:09;;;;;;;5.60;4.25;;;12.30;99.90;;;;;;5037737;28;20064;-73
2022/04/16 10:46:46;;;;;;;6.65;4.47;;;12.30;99.90;;;;;;5034086;28;20103;-71
2022/04/16 10:49:13;;;;;;;5.90;4.25;;;12.30;99.90;;;;;;5035253;28;20526;-72
2022/04/16 10:51:39;;;;;;;5.85;3.95;;;12.40;99.90;;;;;;5035264;28;20053;-73
2022/04/16 10:54:15;;;;;;;6.28;4.55;;;12.40;99.90;;;;;;5034582;28;20111;-74
2022/04/16 10:56:51;;;;;;;5.82;4.35;;;12.50;99.90;;;;;;5046510;28;20846;-74
2022/04/16 10:59:17;;;;;;;9.93;4.93;;;12.60;99.90;;;;;;5055484;28;20041;-75
2022/04/16 11:01:52;;;;;;;6.22;4.03;;;12.60;99.90;;;;;;5055260;28;20063;-74
2022/04/16 11:04:18;;;;;;;5.35;3.92;;;12.70;99.90;;;;;;5054648;28;20047;-74
2022/04/16 11:06:45;;;;;;;6.85;3.83;;;12.70;99.90;;;;;;5055241;28;20127;-73
2022/04/16 11:09:17;;;;;;;4.70;3.75;;;12.80;99.90;;;;;;5054057;28;20041;-73
2022/04/16 11:11:43;;;;;;;7.40;3.60;;;12.90;99.90;;;;;;5052174;28;20048;-74
2022/04/16 11:14:10;;;;;;;6.18;3.88;;;12.90;99.90;;;;;;5054055;28;20041;-75
2022/04/16 11:17:02;;;;;;;5.53;3.80;;;13.00;99.90;;;;;;5054443;28;20117;-74
2022/04/16 11:19:29;;;;;;;5.13;3.65;;;13.00;99.90;;;;;;5050930;28;20450;-74
2022/04/16 11:21:57;;;;;;;4.95;4.15;;;13.10;99.90;;;;;;5064169;28;20036;-73
2022/04/16 11:24:22;;;;;;;8.63;4.25;;;13.20;99.90;;;;;;5056227;28;20055;-74
2022/04/16 11:35:03;;;;;;;5.63;4.05;;;13.50;99.90;;;;;;5054609;28;20045;-74
2022/04/16 11:37:32;;;;;;;6.55;4.20;;;13.50;99.90;;;;;;5054892;28;20055;-73
2022/04/16 11:39:59;;;;;;;5.13;4.03;;;13.60;99.90;;;;;;5054718;28;20044;-74
2022/04/16 11:42:26;;;;;;;5.45;4.28;;;13.70;99.90;;;;;;5037367;28;20457;-74
2022/04/16 11:44:52;;;;;;;7.55;4.15;;;13.70;99.90;;;;;;5054686;28;20098;-73
2022/04/16 11:47:22;;;;;;;4.80;3.67;;;13.70;99.90;;;;;;5054205;28;20037;-74
2022/04/16 11:49:54;;;;;;;4.28;3.42;;;13.80;99.90;;;;;;5037114;28;20064;-73
2022/04/16 11:52:27;;;;;;;4.88;3.55;;;13.80;99.90;;;;;;5054082;28;20056;-75
2022/04/16 11:55:00;;;;;;;5.47;3.50;;;13.90;99.90;;;;;;5054657;28;20037;-75
2022/04/16 11:57:26;;;;;;;5.82;3.72;;;14.00;99.90;;;;;;5054432;28;20059;-75
2022/04/16 12:00:08;;;;;;;5.32;3.47;;;13.90;99.90;;;;;;5037306;28;20045;-75
2022/04/16 12:02:36;;;;;;;5.50;3.85;;;14.00;99.90;;;;;;5054257;28;20455;-75
2022/04/16 12:05:16;;;;;;;5.13;3.95;;;14.10;99.90;;;;;;5036803;28;20128;-73
2022/04/16 12:07:43;;;;;;;7.53;4.00;;;14.10;99.90;;;;;;5054123;28;20473;-75
2022/04/16 12:10:11;;;;;;;7.18;3.65;;;14.20;99.90;;;;;;5054179;28;20449;-75
2022/04/16 12:12:52;;;;;;;5.32;3.45;;;14.20;99.90;;;;;;5037427;28;20063;-75
2022/04/16 12:15:26;;;;;;;5.38;3.63;;;14.30;99.90;;;;;;5054501;28;20391;-71
2022/04/16 12:17:53;;;;;;;5.55;3.92;;;14.30;99.90;;;;;;5054158;28;20367;-73
2022/04/16 12:20:20;;;;;;;4.00;3.40;;;14.40;99.90;;;;;;5053652;28;20052;-74
2022/04/16 12:22:49;;;;;;;4.95;3.83;;;14.50;99.90;;;;;;5034120;28;20114;-73
2022/04/16 12:25:17;;;;;;;6.93;3.65;;;14.50;99.90;;;;;;5034312;28;20077;-73
2022/04/16 12:27:52;;;;;;;4.63;3.72;;;14.60;99.90;;;;;;5033964;28;20056;-72
2022/04/16 12:30:26;;;;;;;6.45;3.13;;;14.90;99.90;;;;;;5028745;28;20105;-72
2022/04/16 12:32:58;;;;;;;6.88;3.63;;;15.00;99.90;;;;;;5034242;28;20041;-73
2022/04/16 12:35:24;;;;;;;4.78;3.72;;;15.10;99.90;;;;;;5034244;28;20115;-73
2022/04/16 12:37:51;;;;;;;3.92;3.42;;;15.10;99.90;;;;;;5038191;28;20052;-76
2022/04/16 12:40:18;;;;;;;3.95;3.58;;;15.10;99.90;;;;;;5038683;28;20033;-73
2022/04/16 12:42:44;;;;;;;4.68;3.33;;;15.20;99.90;;;;;;5040674;28;20328;-73
2022/04/16 12:45:09;;;;;;;4.30;3.45;;;15.20;99.90;;;;;;5040203;28;20151;-73
2022/04/16 12:47:35;;;;;;;4.45;3.33;;;15.30;99.90;;;;;;5040268;28;20106;-73
2022/04/16 12:50:00;;;;;;;4.93;3.60;;;15.60;99.90;;;;;;5057766;28;20446;-75
2022/04/16 12:52:26;;;;;;;4.20;3.53;;;15.70;99.90;;;;;;5037882;28;20444;-74
2022/04/16 12:54:51;;;;;;;4.95;3.13;;;15.90;99.90;;;;;;5037338;28;20041;-75
2022/04/16 12:57:17;;;;;;;3.75;2.67;;;15.90;99.90;;;;;;5037725;28;20038;-75
2022/04/16 12:59:43;;;;;;;3.83;2.58;;;16.20;99.90;;;;;;5037200;28;20045;-75
2022/04/16 13:02:08;;;;;;;3.50;2.47;;;16.50;99.70;;;;;;5037744;28;20120;-76